Time;durP1;ratioP1;P1;durP2;ratioP2;P2;SDS_P1;SDS_P2;PMS_P1;PMS_P2;Temp;Humidity;BMP_temperature;BMP_pressure;BME280_temperature;BME280_humidity;BME280_pressure;Samples;Min_cycle;Max_cycle;Signal;HPM_P1;HPM_P2
2022/08/05 00:02:04;;;;;;;4.60;2.42;;;;;;;;;;5027824;28;20496;-78
2022/08/05 00:04:30;;;;;;;5.50;2.85;;;;;;;;;;5031397;28;20022;-78
2022/08/05 00:06:56;;;;;;;4.53;2.25;;;;;;;;;;5034115;28;20420;-77
2022/08/05 00:09:22;;;;;;;4.05;2.20;;;;;;;;;;5029208;28;20121;-77
2022/08/05 00:11:48;;;;;;;8.65;2.60;;;;;;;;;;5031605;28;20033;-77
2022/08/05 00:14:14;;;;;;;4.20;2.40;;;;;;;;;;5032235;28;20056;-77
2022/08/05 00:16:40;;;;;;;6.72;2.30;;;;;;;;;;5027401;28;20096;-77
2022/08/05 00:19:06;;;;;;;4.57;2.42;;;;;;;;;;5026917;28;20087;-78
2022/08/05 00:21:33;;;;;;;4.47;2.47;;;;;;;;;;5034875;28;20490;-77
2022/08/05 00:23:59;;;;;;;4.90;2.50;;;;;;;;;;5031766;28;20026;-76
2022/08/05 00:26:25;;;;;;;4.13;2.13;;;;;;;;;;5026265;28;20025;-77
2022/08/05 00:28:52;;;;;;;4.25;2.22;;;;;;;;;;5033537;28;20026;-76
2022/08/05 00:31:18;;;;;;;4.22;2.42;;;;;;;;;;5034060;28;20244;-79
2022/08/05 00:33:44;;;;;;;4.20;2.50;;;;;;;;;;5041794;28;20021;-77
2022/08/05 00:36:10;;;;;;;2.83;2.30;;;;;;;;;;5035983;28;20109;-78
2022/08/05 00:38:38;;;;;;;5.88;2.33;;;;;;;;;;5022207;28;20117;-76
2022/08/05 00:41:06;;;;;;;6.78;2.63;;;;;;;;;;5031333;28;20125;-77
2022/08/05 00:43:32;;;;;;;4.43;2.40;;;;;;;;;;5032449;28;20056;-76
2022/08/05 00:45:58;;;;;;;4.18;2.42;;;;;;;;;;5030847;28;20017;-78
2022/08/05 00:48:25;;;;;;;9.00;2.83;;;;;;;;;;5029356;28;20057;-76
2022/08/05 00:50:51;;;;;;;4.15;2.33;;;;;;;;;;5028026;28;20049;-77
2022/08/05 00:53:19;;;;;;;6.80;2.50;;;;;;;;;;5027691;28;20056;-78
2022/08/05 00:55:45;;;;;;;3.60;2.42;;;;;;;;;;5029232;28;20037;-78
2022/08/05 00:58:12;;;;;;;4.97;2.40;;;;;;;;;;5030604;28;20076;-76
2022/08/05 01:00:38;;;;;;;5.30;2.10;;;;;;;;;;5033531;28;20033;-77
2022/08/05 01:03:04;;;;;;;5.30;2.53;;;;;;;;;;5022342;28;20034;-77
2022/08/05 01:05:30;;;;;;;5.60;2.55;;;;;;;;;;5025374;28;20484;-77
2022/08/05 01:07:57;;;;;;;3.92;2.47;;;;;;;;;;5032191;28;20017;-79
2022/08/05 01:10:29;;;;;;;5.43;2.53;;;;;;;;;;5026441;28;20642;-79
2022/08/05 01:13:07;;;;;;;5.70;2.80;;;;;;;;;;5029662;28;20093;-78
2022/08/05 01:15:39;;;;;;;5.68;2.17;;;;;;;;;;5029566;28;20068;-78
2022/08/05 01:18:09;;;;;;;5.25;2.47;;;;;;;;;;5032040;28;20048;-79
2022/08/05 01:20:35;;;;;;;4.18;2.65;;;;;;;;;;5025134;28;20047;-78
2022/08/05 01:23:10;;;;;;;7.57;2.50;;;;;;;;;;5032388;28;20024;-79
2022/08/05 01:25:36;;;;;;;;;;;;;;;;;;5033112;28;20464;-79
2022/08/05 01:28:05;;;;;;;4.53;2.55;;;;;;;;;;5031648;28;19964;-76
2022/08/05 01:30:36;;;;;;;4.47;2.20;;;;;;;;;;5034319;28;20029;-77
2022/08/05 01:33:06;;;;;;;4.03;2.45;;;;;;;;;;5035578;28;20095;-78
2022/08/05 01:35:33;;;;;;;3.95;2.13;;;;;;;;;;5041049;28;20036;-77
2022/08/05 01:38:01;;;;;;;4.95;2.50;;;;;;;;;;5032637;28;20044;-77
2022/08/05 01:40:28;;;;;;;5.50;2.30;;;;;;;;;;5028386;28;20536;-78
2022/08/05 01:42:55;;;;;;;6.22;3.42;;;;;;;;;;5030524;28;20612;-76
2022/08/05 01:45:22;;;;;;;9.10;2.97;;;;;;;;;;5034735;28;20021;-79
2022/08/05 01:47:50;;;;;;;8.88;2.95;;;;;;;;;;5029528;28;20038;-78
2022/08/05 01:50:21;;;;;;;5.68;2.53;;;;;;;;;;5024830;28;20134;-80
2022/08/05 01:52:48;;;;;;;7.85;2.65;;;;;;;;;;5033571;28;20251;-74
2022/08/05 01:55:16;;;;;;;4.60;2.30;;;;;;;;;;5038318;28;20054;-78
2022/08/05 01:57:44;;;;;;;6.95;2.83;;;;;;;;;;5039224;28;20105;-78
2022/08/05 02:00:11;;;;;;;5.43;2.42;;;;;;;;;;5039867;28;20026;-77
2022/08/05 02:02:38;;;;;;;4.93;2.60;;;;;;;;;;5040177;28;20049;-79
2022/08/05 02:05:07;;;;;;;7.15;2.42;;;;;;;;;;5042238;28;20054;-78
2022/08/05 02:07:33;;;;;;;7.57;2.92;;;;;;;;;;5034922;28;20037;-78
2022/08/05 02:10:00;;;;;;;5.80;2.25;;;;;;;;;;5037527;28;20021;-77
2022/08/05 02:12:42;;;;;;;4.07;2.55;;;;;;;;;;5042215;28;20029;-78
2022/08/05 02:15:25;;;;;;;4.05;2.45;;;;;;;;;;5038236;28;20040;-79
2022/08/05 02:17:53;;;;;;;5.07;2.50;;;;;;;;;;5041756;28;20060;-79
2022/08/05 02:20:22;;;;;;;8.18;2.92;;;;;;;;;;5041358;28;20097;-76
2022/08/05 02:22:53;;;;;;;5.03;2.30;;;;;;;;;;5039468;28;20049;-78
2022/08/05 02:25:24;;;;;;;7.30;2.50;;;;;;;;;;5041557;28;20022;-78
2022/08/05 02:27:51;;;;;;;7.78;2.55;;;;;;;;;;5041058;28;20025;-74
2022/08/05 02:30:17;;;;;;;4.88;2.20;;;;;;;;;;5040633;28;20025;-77
2022/08/05 02:32:46;;;;;;;5.18;2.58;;;;;;;;;;5050056;28;20030;-76
2022/08/05 02:35:15;;;;;;;5.93;2.38;;;;;;;;;;5034971;28;20029;-80
2022/08/05 02:37:43;;;;;;;5.55;2.30;;;;;;;;;;5053899;28;20033;-79
2022/08/05 02:40:13;;;;;;;5.10;3.13;;;;;;;;;;5032769;28;20590;-77
2022/08/05 02:42:39;;;;;;;5.32;2.55;;;;;;;;;;5031946;28;20093;-78
2022/08/05 02:45:06;;;;;;;6.82;2.35;;;;;;;;;;5038942;28;20032;-78
2022/08/05 02:47:34;;;;;;;6.80;2.35;;;;;;;;;;5034998;28;20028;-77
2022/08/05 02:50:00;;;;;;;7.85;2.80;;;;;;;;;;5033600;28;20036;-78
2022/08/05 02:52:27;;;;;;;3.83;2.35;;;;;;;;;;5031063;28;20025;-78
2022/08/05 02:54:54;;;;;;;3.58;2.42;;;;;;;;;;5036521;28;20029;-76
2022/08/05 02:57:22;;;;;;;9.13;2.70;;;;;;;;;;5031132;28;20036;-77
2022/08/05 02:59:48;;;;;;;3.60;2.30;;;;;;;;;;5038040;28;20026;-78
2022/08/05 03:02:16;;;;;;;7.15;2.50;;;;;;;;;;5043091;28;20033;-76
2022/08/05 03:04:43;;;;;;;9.57;2.58;;;;;;;;;;5043787;28;20029;-77
2022/08/05 03:07:09;;;;;;;7.18;2.70;;;;;;;;;;5043143;28;20100;-78
2022/08/05 03:09:35;;;;;;;4.50;2.67;;;;;;;;;;5033969;28;20418;-77
2022/08/05 03:12:02;;;;;;;4.75;2.40;;;;;;;;;;5034386;28;20021;-76
2022/08/05 03:14:28;;;;;;;4.18;2.50;;;;;;;;;;5035338;28;20035;-76
2022/08/05 03:16:54;;;;;;;3.63;2.65;;;;;;;;;;5037816;28;20022;-78
2022/08/05 03:19:20;;;;;;;8.05;2.72;;;;;;;;;;5038314;28;20109;-78
2022/08/05 03:21:46;;;;;;;4.95;2.20;;;;;;;;;;5033863;28;20302;-79
2022/08/05 03:24:13;;;;;;;5.15;2.20;;;;;;;;;;5039889;28;20032;-77
2022/08/05 03:26:39;;;;;;;4.55;2.35;;;;;;;;;;5034137;28;20025;-77
2022/08/05 03:29:05;;;;;;;5.47;2.78;;;;;;;;;;5043933;28;20080;-79
2022/08/05 03:31:32;;;;;;;3.15;2.45;;;;;;;;;;5041599;28;20026;-78
2022/08/05 03:33:58;;;;;;;3.40;2.28;;;;;;;;;;5039625;28;20029;-78
2022/08/05 03:36:25;;;;;;;5.78;2.90;;;;;;;;;;5037962;28;20037;-78
2022/08/05 03:38:51;;;;;;;4.18;2.22;;;;;;;;;;5034041;28;20033;-77
2022/08/05 03:41:17;;;;;;;4.47;2.55;;;;;;;;;;5036315;28;20021;-77
2022/08/05 03:43:43;;;;;;;4.97;2.30;;;;;;;;;;5034579;28;20026;-78
2022/08/05 03:46:09;;;;;;;6.55;2.35;;;;;;;;;;5037516;28;20520;-77
2022/08/05 03:48:36;;;;;;;3.28;2.15;;;;;;;;;;5041499;28;20029;-76
2022/08/05 03:51:02;;;;;;;4.47;2.28;;;;;;;;;;5042979;28;20058;-77
2022/08/05 03:53:31;;;;;;;6.55;2.40;;;;;;;;;;5041657;28;20477;-78
2022/08/05 03:56:00;;;;;;;8.82;2.35;;;;;;;;;;5037415;28;20056;-77
2022/08/05 03:58:27;;;;;;;3.53;2.15;;;;;;;;;;5048058;28;20026;-78
2022/08/05 04:00:55;;;;;;;7.15;2.47;;;;;;;;;;5037862;28;20031;-77
2022/08/05 04:03:21;;;;;;;4.15;2.35;;;;;;;;;;5045198;28;20460;-77
2022/08/05 04:05:48;;;;;;;3.17;2.20;;;;;;;;;;5045241;28;20017;-78
2022/08/05 04:08:14;;;;;;;5.15;2.60;;;;;;;;;;5031012;28;20018;-79
2022/08/05 04:10:41;;;;;;;6.47;2.70;;;;;;;;;;5036259;28;20056;-78
2022/08/05 04:13:08;;;;;;;5.47;2.35;;;;;;;;;;5031693;28;20098;-78
2022/08/05 04:15:34;;;;;;;5.95;2.30;;;;;;;;;;5030032;28;20603;-78
2022/08/05 04:18:04;;;;;;;5.53;2.58;;;;;;;;;;5032562;28;20047;-75
2022/08/05 04:20:30;;;;;;;5.80;2.15;;;;;;;;;;5036301;28;20025;-80
2022/08/05 04:22:56;;;;;;;7.75;2.58;;;;;;;;;;5036243;28;20172;-78
2022/08/05 04:25:22;;;;;;;5.05;2.20;;;;;;;;;;5032370;28;20029;-77
2022/08/05 04:27:48;;;;;;;5.78;2.88;;;;;;;;;;5026504;28;20136;-77
2022/08/05 04:30:15;;;;;;;6.57;2.67;;;;;;;;;;5027454;28;20396;-77
2022/08/05 04:32:41;;;;;;;4.93;2.42;;;;;;;;;;5027053;28;20116;-77
2022/08/05 04:35:07;;;;;;;2.80;2.10;;;;;;;;;;5026468;28;20029;-77
2022/08/05 04:37:33;;;;;;;4.47;3.20;;;;;;;;;;5025351;28;20037;-76
2022/08/05 04:40:00;;;;;;;7.60;2.55;;;;;;;;;;5024151;28;20415;-76
2022/08/05 04:42:26;;;;;;;4.03;2.58;;;;;;;;;;5043861;28;20026;-78
2022/08/05 04:44:52;;;;;;;9.85;2.72;;;;;;;;;;5025021;28;20053;-77
2022/08/05 04:47:19;;;;;;;6.30;2.63;;;;;;;;;;5023204;28;20506;-77
2022/08/05 04:49:45;;;;;;;4.25;2.75;;;;;;;;;;5028274;28;20680;-79
2022/08/05 04:52:11;;;;;;;10.43;2.92;;;;;;;;;;5025920;28;20025;-79
2022/08/05 04:54:37;;;;;;;5.05;2.53;;;;;;;;;;5032616;28;20021;-76
2022/08/05 04:57:03;;;;;;;4.80;2.25;;;;;;;;;;5029217;28;20562;-78
2022/08/05 04:59:29;;;;;;;6.03;2.60;;;;;;;;;;5030855;28;20064;-77
2022/08/05 05:01:57;;;;;;;2.92;2.22;;;;;;;;;;5027879;28;20450;-79
2022/08/05 05:04:23;;;;;;;7.13;2.67;;;;;;;;;;5029776;28;20022;-78
2022/08/05 05:06:49;;;;;;;6.57;2.45;;;;;;;;;;5031356;28;20457;-76
2022/08/05 05:09:17;;;;;;;5.82;2.33;;;;;;;;;;5038658;28;20018;-76
2022/08/05 05:11:43;;;;;;;3.22;2.30;;;;;;;;;;5037460;28;20033;-80
2022/08/05 05:14:09;;;;;;;4.78;2.38;;;;;;;;;;5037622;28;20067;-79
2022/08/05 05:16:35;;;;;;;5.75;2.60;;;;;;;;;;5024087;28;20117;-75
2022/08/05 05:19:01;;;;;;;6.28;2.38;;;;;;;;;;5033027;28;20033;-80
2022/08/05 05:21:27;;;;;;;4.07;2.40;;;;;;;;;;5023224;28;20029;-78
2022/08/05 05:23:56;;;;;;;3.15;2.40;;;;;;;;;;5031222;28;20025;-75
2022/08/05 05:26:22;;;;;;;7.20;3.85;;;;;;;;;;5035634;28;20026;-74
2022/08/05 05:28:48;;;;;;;4.50;3.30;;;;;;;;;;5038272;28;20032;-78
2022/08/05 05:31:14;;;;;;;7.05;2.50;;;;;;;;;;5034987;28;20114;-78
2022/08/05 05:33:40;;;;;;;6.72;2.65;;;;;;;;;;5037386;28;20036;-78
2022/08/05 05:36:07;;;;;;;4.18;2.15;;;;;;;;;;5031648;28;20017;-77
2022/08/05 05:38:33;;;;;;;4.20;2.30;;;;;;;;;;5032813;28;20384;-78
2022/08/05 05:40:59;;;;;;;6.70;2.63;;;;;;;;;;5035288;28;20649;-77
2022/08/05 05:43:25;;;;;;;3.03;1.98;;;;;;;;;;5029205;28;20044;-79
2022/08/05 05:45:51;;;;;;;6.68;2.78;;;;;;;;;;5038740;28;20105;-76
2022/08/05 05:48:17;;;;;;;6.22;2.50;;;;;;;;;;5034529;28;20028;-79
2022/08/05 05:50:43;;;;;;;4.70;2.25;;;;;;;;;;5038267;28;20132;-78
2022/08/05 05:53:10;;;;;;;5.38;3.00;;;;;;;;;;5041484;28;20375;-76
2022/08/05 05:55:36;;;;;;;4.68;2.28;;;;;;;;;;5037720;28;20022;-78
2022/08/05 05:58:02;;;;;;;3.35;2.20;;;;;;;;;;5038818;28;20037;-79
2022/08/05 06:00:28;;;;;;;6.88;2.42;;;;;;;;;;5037423;28;20041;-78
2022/08/05 06:02:54;;;;;;;3.97;2.47;;;;;;;;;;5042467;28;20025;-76
2022/08/05 06:05:20;;;;;;;6.07;2.65;;;;;;;;;;5042848;28;20361;-78
2022/08/05 06:07:48;;;;;;;5.72;2.38;;;;;;;;;;5043922;28;20021;-76
2022/08/05 06:10:15;;;;;;;4.80;2.40;;;;;;;;;;5033328;28;20325;-78
2022/08/05 06:12:41;;;;;;;3.53;2.15;;;;;;;;;;5033050;28;20365;-77
2022/08/05 06:15:07;;;;;;;4.53;2.10;;;;;;;;;;5036550;28;20025;-78
2022/08/05 06:17:33;;;;;;;9.60;2.40;;;;;;;;;;5034498;28;20034;-76
2022/08/05 06:19:59;;;;;;;5.00;2.70;;;;;;;;;;5040126;28;20310;-78
2022/08/05 06:22:33;;;;;;;6.55;2.30;;;;;;;;;;5037250;28;20057;-76
2022/08/05 06:24:59;;;;;;;5.07;2.97;;;;;;;;;;5026665;28;20044;-77
2022/08/05 06:27:26;;;;;;;2.65;1.90;;;;;;;;;;5035998;28;20169;-78
2022/08/05 06:29:52;;;;;;;8.45;3.00;;;;;;;;;;5033909;28;20376;-78
2022/08/05 06:32:18;;;;;;;5.35;2.60;;;;;;;;;;5031562;28;20049;-78
2022/08/05 06:34:44;;;;;;;4.93;2.08;;;;;;;;;;5032420;28;20030;-78
2022/08/05 06:37:10;;;;;;;4.30;2.40;;;;;;;;;;5029003;28;20026;-80
2022/08/05 06:39:38;;;;;;;4.40;2.53;;;;;;;;;;5029129;28;20029;-78
2022/08/05 06:42:04;;;;;;;4.97;2.22;;;;;;;;;;5031650;28;20499;-77
2022/08/05 06:44:30;;;;;;;3.35;2.10;;;;;;;;;;5029513;28;20137;-79
2022/08/05 06:46:56;;;;;;;5.30;2.55;;;;;;;;;;5033979;28;20021;-77
2022/08/05 06:49:23;;;;;;;4.43;2.63;;;;;;;;;;5032969;28;20029;-78
2022/08/05 06:51:49;;;;;;;6.45;3.13;;;;;;;;;;5030990;28;20590;-78
2022/08/05 06:54:16;;;;;;;5.70;2.67;;;;;;;;;;5030267;28;20033;-77
2022/08/05 06:56:42;;;;;;;5.15;2.20;;;;;;;;;;5030106;28;20476;-78
2022/08/05 06:59:09;;;;;;;4.60;2.78;;;;;;;;;;5032637;28;20021;-80
2022/08/05 07:01:35;;;;;;;9.70;2.70;;;;;;;;;;5034378;28;20498;-77
2022/08/05 07:04:01;;;;;;;6.45;2.78;;;;;;;;;;5039860;28;20422;-76
2022/08/05 07:06:27;;;;;;;7.47;2.60;;;;;;;;;;5032421;28;20093;-75
2022/08/05 07:08:53;;;;;;;7.65;2.83;;;;;;;;;;5031324;28;20030;-77
2022/08/05 07:11:20;;;;;;;5.22;2.30;;;;;;;;;;5039988;28;20033;-76
2022/08/05 07:16:49;;;;;;;5.13;2.65;;;;;;;;;;5036272;28;20033;-78
2022/08/05 07:19:19;;;;;;;9.40;2.13;;;;;;;;;;5039405;28;20076;-79
2022/08/05 07:21:45;;;;;;;3.90;2.53;;;;;;;;;;5035260;28;20055;-79
2022/08/05 07:24:13;;;;;;;6.95;2.30;;;;;;;;;;5035648;28;20038;-80
2022/08/05 07:26:39;;;;;;;5.13;2.20;;;;;;;;;;5033939;28;20357;-76
2022/08/05 07:29:05;;;;;;;6.25;2.40;;;;;;;;;;5041157;28;20028;-77
2022/08/05 07:31:31;;;;;;;4.50;2.00;;;;;;;;;;5048058;28;20022;-76
2022/08/05 07:33:57;;;;;;;8.15;3.33;;;;;;;;;;5032276;28;20053;-78
2022/08/05 07:36:24;;;;;;;4.78;2.38;;;;;;;;;;5033103;28;20330;-77
2022/08/05 07:38:50;;;;;;;5.20;3.00;;;;;;;;;;5026875;28;20025;-77
2022/08/05 07:41:17;;;;;;;5.65;2.58;;;;;;;;;;5034657;28;20032;-79
2022/08/05 07:43:43;;;;;;;4.18;3.00;;;;;;;;;;5039902;28;20065;-78
2022/08/05 07:46:10;;;;;;;6.07;2.90;;;;;;;;;;5030266;28;20048;-77
2022/08/05 07:48:36;;;;;;;5.57;2.33;;;;;;;;;;5027881;28;20026;-79
2022/08/05 07:51:02;;;;;;;3.75;2.05;;;;;;;;;;5032118;28;20060;-77
2022/08/05 07:53:28;;;;;;;5.50;2.55;;;;;;;;;;5032528;28;20499;-78
2022/08/05 07:55:54;;;;;;;7.65;2.70;;;;;;;;;;5032293;28;20033;-78
2022/08/05 07:58:20;;;;;;;6.22;3.10;;;;;;;;;;5039015;28;20097;-78
2022/08/05 08:00:46;;;;;;;7.35;2.85;;;;;;;;;;5032404;28;20025;-79
2022/08/05 08:03:13;;;;;;;5.20;2.10;;;;;;;;;;5036846;28;20099;-77
2022/08/05 08:05:42;;;;;;;5.55;2.28;;;;;;;;;;5024748;28;20032;-76
2022/08/05 08:08:09;;;;;;;6.97;2.60;;;;;;;;;;5032667;28;20010;-77
2022/08/05 08:10:35;;;;;;;4.53;2.10;;;;;;;;;;5031132;28;20140;-78
2022/08/05 08:13:01;;;;;;;4.60;2.42;;;;;;;;;;5032242;28;20026;-79
2022/08/05 08:15:27;;;;;;;3.92;1.75;;;;;;;;;;5033936;28;20049;-79
2022/08/05 08:17:53;;;;;;;6.00;2.30;;;;;;;;;;5035960;28;20124;-77
2022/08/05 08:20:24;;;;;;;6.90;2.35;;;;;;;;;;5038971;28;20028;-80
2022/08/05 08:22:53;;;;;;;5.13;2.40;;;;;;;;;;5034053;28;20035;-78
2022/08/05 08:25:20;;;;;;;6.32;2.72;;;;;;;;;;5032537;28;20108;-78
2022/08/05 08:27:46;;;;;;;5.47;2.65;;;;;;;;;;5029340;28;20037;-78
2022/08/05 08:30:12;;;;;;;4.18;2.13;;;;;;;;;;5027212;28;20034;-78
2022/08/05 08:32:39;;;;;;;4.38;2.40;;;;;;;;;;5034187;28;20033;-77
2022/08/05 08:35:06;;;;;;;5.85;2.30;;;;;;;;;;5029726;28;20018;-78
2022/08/05 08:37:32;;;;;;;4.43;2.30;;;;;;;;;;5029606;28;20089;-79
2022/08/05 08:39:58;;;;;;;7.97;2.20;;;;;;;;;;5035722;28;20048;-78
2022/08/05 08:42:25;;;;;;;3.40;2.25;;;;;;;;;;5034400;28;20056;-77
2022/08/05 08:44:53;;;;;;;4.53;2.05;;;;;;;;;;5036071;28;20022;-79
2022/08/05 08:47:22;;;;;;;3.63;1.98;;;;;;;;;;5040825;28;20032;-76
2022/08/05 08:49:51;;;;;;;5.32;2.22;;;;;;;;;;5036418;28;20053;-78
2022/08/05 08:52:20;;;;;;;3.10;2.10;;;;;;;;;;5034911;28;20603;-76
2022/08/05 08:54:46;;;;;;;6.43;2.90;;;;;;;;;;5034804;28;20029;-78
2022/08/05 08:57:13;;;;;;;2.83;1.80;;;;;;;;;;5035342;28;20504;-78
2022/08/05 08:59:39;;;;;;;4.60;1.90;;;;;;;;;;5024761;28;20079;-76
2022/08/05 09:02:06;;;;;;;4.82;1.90;;;;;;;;;;5031744;28;20040;-77
2022/08/05 09:04:39;;;;;;;3.97;1.80;;;;;;;;;;5032662;28;20018;-79
2022/08/05 09:07:08;;;;;;;2.90;1.88;;;;;;;;;;5035666;28;20376;-78
2022/08/05 09:09:34;;;;;;;4.97;1.75;;;;;;;;;;5027513;28;20398;-79
2022/08/05 09:12:01;;;;;;;2.92;1.95;;;;;;;;;;5038224;28;20112;-78
2022/08/05 09:14:31;;;;;;;3.88;2.03;;;;;;;;;;5031730;28;20091;-77
2022/08/05 09:16:59;;;;;;;5.40;2.28;;;;;;;;;;5039517;28;20089;-78
2022/08/05 09:19:25;;;;;;;4.47;2.72;;;;;;;;;;5037590;28;20472;-79
2022/08/05 09:21:51;;;;;;;3.60;2.67;;;;;;;;;;5035944;28;20383;-80
2022/08/05 09:24:17;;;;;;;3.67;1.98;;;;;;;;;;5042222;28;20056;-79
2022/08/05 09:26:47;;;;;;;4.75;2.00;;;;;;;;;;5039843;28;20041;-81
2022/08/05 09:29:13;;;;;;;3.08;1.65;;;;;;;;;;5039674;28;20026;-78
2022/08/05 09:31:42;;;;;;;2.63;1.80;;;;;;;;;;5042090;28;20048;-78
2022/08/05 09:34:09;;;;;;;2.53;1.75;;;;;;;;;;5044782;28;20028;-77
2022/08/05 09:36:40;;;;;;;4.35;1.95;;;;;;;;;;5042755;28;20030;-79
2022/08/05 09:39:07;;;;;;;4.40;2.20;;;;;;;;;;5044027;28;20443;-79
2022/08/05 09:41:33;;;;;;;3.00;2.25;;;;;;;;;;5037873;28;20488;-79
2022/08/05 09:44:00;;;;;;;4.35;1.80;;;;;;;;;;5036681;28;20468;-78
2022/08/05 09:46:33;;;;;;;4.00;2.20;;;;;;;;;;5034932;28;20021;-79
2022/08/05 09:49:03;;;;;;;3.88;2.05;;;;;;;;;;5041013;28;20483;-77
2022/08/05 09:51:40;;;;;;;4.82;1.60;;;;;;;;;;5039224;28;20068;-78
2022/08/05 09:54:08;;;;;;;4.53;1.80;;;;;;;;;;5061640;28;20022;-80
2022/08/05 09:56:36;;;;;;;2.55;1.40;;;;;;;;;;5041377;28;20585;-78
2022/08/05 09:59:02;;;;;;;1.55;1.42;;;;;;;;;;5044077;28;20022;-77
2022/08/05 10:01:32;;;;;;;2.45;1.80;;;;;;;;;;5045081;28;20028;-77
2022/08/05 10:04:16;;;;;;;4.15;1.80;;;;;;;;;;5041975;28;20018;-78
2022/08/05 10:06:52;;;;;;;3.60;1.92;;;;;;;;;;5040595;28;20049;-77
2022/08/05 10:09:22;;;;;;;1.88;1.67;;;;;;;;;;5057261;28;20547;-77
2022/08/05 10:11:49;;;;;;;3.28;1.73;;;;;;;;;;5042805;28;20021;-79
2022/08/05 10:14:26;;;;;;;2.63;1.58;;;;;;;;;;5038125;28;20026;-79
2022/08/05 10:16:55;;;;;;;2.38;1.42;;;;;;;;;;5040539;28;20025;-78
2022/08/05 10:19:22;;;;;;;2.17;1.50;;;;;;;;;;5037643;28;20124;-77
2022/08/05 10:21:48;;;;;;;3.20;1.52;;;;;;;;;;5035958;28;20025;-79
2022/08/05 10:24:16;;;;;;;3.25;1.70;;;;;;;;;;5038551;28;20113;-78
2022/08/05 10:26:42;;;;;;;2.13;1.65;;;;;;;;;;5038746;28;20438;-80
2022/08/05 10:29:09;;;;;;;3.15;1.80;;;;;;;;;;5040104;28;20052;-79
2022/08/05 10:31:38;;;;;;;7.70;1.77;;;;;;;;;;5036170;28;20072;-77
2022/08/05 10:34:06;;;;;;;3.15;1.60;;;;;;;;;;5044117;28;20065;-79
2022/08/05 10:36:32;;;;;;;6.00;1.80;;;;;;;;;;5036889;28;20090;-80
2022/08/05 10:39:24;;;;;;;2.60;1.90;;;;;;;;;;5042435;28;20041;-78
2022/08/05 10:42:00;;;;;;;4.45;1.70;;;;;;;;;;5036938;28;20045;-79
2022/08/05 10:44:27;;;;;;;2.83;1.90;;;;;;;;;;5039337;28;20032;-80
2022/08/05 10:46:54;;;;;;;4.13;1.55;;;;;;;;;;5042470;28;20052;-78
2022/08/05 10:49:22;;;;;;;3.75;1.88;;;;;;;;;;5037835;28;20028;-77
2022/08/05 10:51:49;;;;;;;3.05;2.10;;;;;;;;;;5040381;28;20061;-78
2022/08/05 10:54:16;;;;;;;2.00;1.63;;;;;;;;;;5036210;28;20034;-78
2022/08/05 10:56:54;;;;;;;4.68;1.92;;;;;;;;;;5036937;28;20520;-78
2022/08/05 10:59:31;;;;;;;3.17;1.90;;;;;;;;;;5041508;28;20030;-78
2022/08/05 11:02:08;;;;;;;5.55;2.30;;;;;;;;;;5036082;28;20090;-79
2022/08/05 11:04:44;;;;;;;3.90;1.90;;;;;;;;;;5041755;28;20079;-79
2022/08/05 11:07:14;;;;;;;4.88;2.00;;;;;;;;;;5035314;28;20018;-78
2022/08/05 11:09:47;;;;;;;2.65;2.10;;;;;;;;;;5041186;28;20048;-79
2022/08/05 11:12:41;;;;;;;2.53;2.08;;;;;;;;;;5042228;28;20147;-79
2022/08/05 11:15:07;;;;;;;5.55;1.92;;;;;;;;;;5046169;28;20087;-77
2022/08/05 11:17:36;;;;;;;4.82;2.13;;;;;;;;;;5047387;28;20076;-76
2022/08/05 11:20:03;;;;;;;3.33;2.20;;;;;;;;;;5044388;28;20048;-78
2022/08/05 11:22:41;;;;;;;3.65;2.13;;;;;;;;;;5047539;28;20037;-77
2022/08/05 11:25:27;;;;;;;4.18;2.25;;;;;;;;;;5037034;28;20028;-77
2022/08/05 11:27:54;;;;;;;3.17;2.00;;;;;;;;;;5043807;28;20022;-79
2022/08/05 11:30:20;;;;;;;2.72;2.20;;;;;;;;;;5045431;28;20068;-78
2022/08/05 11:32:47;;;;;;;3.92;2.50;;;;;;;;;;5042631;28;20045;-77
2022/08/05 11:35:31;;;;;;;2.92;2.10;;;;;;;;;;5043688;28;20079;-78
2022/08/05 11:37:58;;;;;;;2.63;2.20;;;;;;;;;;5043650;28;20037;-79
2022/08/05 11:40:42;;;;;;;7.22;2.30;;;;;;;;;;5047427;28;20038;-77
2022/08/05 11:43:19;;;;;;;4.15;2.20;;;;;;;;;;5033757;28;20037;-79
2022/08/05 11:45:48;;;;;;;2.42;1.70;;;;;;;;;;5036323;28;20033;-78
2022/08/05 11:48:14;;;;;;;4.43;2.08;;;;;;;;;;5042196;28;20040;-78
2022/08/05 11:50:42;;;;;;;3.42;2.33;;;;;;;;;;5037829;28;20041;-77
2022/08/05 11:53:08;;;;;;;3.38;2.15;;;;;;;;;;5039952;28;20039;-78
2022/08/05 11:55:34;;;;;;;5.50;2.28;;;;;;;;;;5046284;28;20396;-78
2022/08/05 11:58:00;;;;;;;4.63;2.17;;;;;;;;;;5046175;28;20136;-77
2022/08/05 12:00:27;;;;;;;3.60;2.30;;;;;;;;;;5031371;28;20033;-77
2022/08/05 12:02:53;;;;;;;3.63;2.60;;;;;;;;;;5049983;28;20026;-78
2022/08/05 12:05:26;;;;;;;4.75;2.10;;;;;;;;;;5032605;28;20028;-77
2022/08/05 12:07:56;;;;;;;4.47;2.30;;;;;;;;;;5045862;28;20105;-80
2022/08/05 12:10:25;;;;;;;4.47;2.42;;;;;;;;;;5040751;28;20032;-80
2022/08/05 12:12:52;;;;;;;3.85;2.22;;;;;;;;;;5041412;28;20037;-78
2022/08/05 12:15:22;;;;;;;2.67;2.28;;;;;;;;;;5042407;28;20057;-77
2022/08/05 12:17:48;;;;;;;4.90;2.40;;;;;;;;;;5040279;28;20029;-81
2022/08/05 12:20:14;;;;;;;6.38;2.30;;;;;;;;;;5040530;28;20492;-80
2022/08/05 12:22:40;;;;;;;2.53;2.05;;;;;;;;;;5030189;28;20093;-80
2022/08/05 12:25:06;;;;;;;3.00;2.45;;;;;;;;;;5027139;28;20682;-80
2022/08/05 12:27:33;;;;;;;4.35;2.42;;;;;;;;;;5031876;28;20152;-80
2022/08/05 12:30:04;;;;;;;4.50;2.40;;;;;;;;;;5033892;28;20017;-81
2022/08/05 12:32:34;;;;;;;4.10;2.53;;;;;;;;;;5030958;28;20026;-82
2022/08/05 12:35:02;;;;;;;4.53;2.80;;;;;;;;;;5023835;28;20483;-80
2022/08/05 12:37:29;;;;;;;4.45;2.45;;;;;;;;;;5029212;28;20025;-79
2022/08/05 12:39:56;;;;;;;6.60;2.65;;;;;;;;;;5026909;28;20029;-82
2022/08/05 12:42:22;;;;;;;3.30;2.50;;;;;;;;;;5028908;28;20035;-81
2022/08/05 12:44:48;;;;;;;3.88;2.33;;;;;;;;;;5027108;28;20026;-79
2022/08/05 12:47:27;;;;;;;4.90;2.45;;;;;;;;;;5029785;28;20028;-82
2022/08/05 12:49:53;;;;;;;3.10;2.35;;;;;;;;;;5029045;28;20030;-80
2022/08/05 12:52:19;;;;;;;4.22;2.22;;;;;;;;;;5033239;28;20028;-80
2022/08/05 12:54:47;;;;;;;3.83;2.72;;;;;;;;;;5033333;28;20026;-80
2022/08/05 12:57:14;;;;;;;3.78;2.25;;;;;;;;;;5036701;28;20036;-78
2022/08/05 12:59:48;;;;;;;4.53;2.45;;;;;;;;;;5037090;28;20100;-80
2022/08/05 13:02:20;;;;;;;3.08;2.50;;;;;;;;;;5039193;28;20037;-80
2022/08/05 13:04:47;;;;;;;4.57;2.40;;;;;;;;;;5047775;28;20025;-81
2022/08/05 13:07:15;;;;;;;6.25;2.80;;;;;;;;;;5042542;28;20021;-77
2022/08/05 13:10:02;;;;;;;3.72;2.33;;;;;;;;;;5038797;28;20048;-81
2022/08/05 13:12:28;;;;;;;2.97;2.40;;;;;;;;;;5028606;28;20476;-82
2022/08/05 13:15:00;;;;;;;3.78;2.50;;;;;;;;;;5027103;28;20029;-78
2022/08/05 13:17:27;;;;;;;6.13;2.65;;;;;;;;;;5024841;28;20025;-81
2022/08/05 13:20:17;;;;;;;4.10;2.50;;;;;;;;;;5025018;28;20025;-82
2022/08/05 13:22:51;;;;;;;5.03;2.70;;;;;;;;;;5019249;28;20037;-81
2022/08/05 13:25:18;;;;;;;4.05;2.40;;;;;;;;;;5029894;28;20535;-80
2022/08/05 13:27:51;;;;;;;3.53;2.50;;;;;;;;;;5027171;28;20048;-80
2022/08/05 13:30:20;;;;;;;3.88;2.05;;;;;;;;;;5025634;28;20029;-81
2022/08/05 13:32:47;;;;;;;2.58;1.90;;;;;;;;;;5026420;28;20432;-82
2022/08/05 13:35:14;;;;;;;3.17;1.90;;;;;;;;;;5022343;28;20535;-79
2022/08/05 13:37:40;;;;;;;4.72;2.10;;;;;;;;;;5024873;28;20048;-80
2022/08/05 13:40:07;;;;;;;2.50;1.88;;;;;;;;;;5015515;28;20021;-81
2022/08/05 13:42:33;;;;;;;2.10;1.90;;;;;;;;;;5017708;28;20030;-80
2022/08/05 13:44:59;;;;;;;3.70;1.92;;;;;;;;;;5022976;28;20021;-79
2022/08/05 13:47:25;;;;;;;4.65;2.00;;;;;;;;;;5019195;28;20571;-79
2022/08/05 13:49:52;;;;;;;6.57;3.03;;;;;;;;;;5024220;28;20099;-80
2022/08/05 13:52:22;;;;;;;1.90;1.70;;;;;;;;;;5027040;28;20036;-81
2022/08/05 13:54:49;;;;;;;2.92;2.25;;;;;;;;;;5025976;28;20029;-81
2022/08/05 13:57:15;;;;;;;5.85;2.00;;;;;;;;;;5023120;28;20426;-81
2022/08/05 13:59:42;;;;;;;2.78;1.90;;;;;;;;;;5026219;28;20022;-81
2022/08/05 14:02:09;;;;;;;2.20;2.00;;;;;;;;;;5018170;28;20236;-80
2022/08/05 14:07:22;;;;;;;3.25;1.80;;;;;;;;;;5021110;28;20495;-80
2022/08/05 14:09:48;;;;;;;3.40;1.67;;;;;;;;;;5026562;28;20029;-81
2022/08/05 14:12:14;;;;;;;1.70;1.50;;;;;;;;;;5022770;28;20396;-82
2022/08/05 14:14:41;;;;;;;5.57;1.85;;;;;;;;;;5021049;28;20033;-80
2022/08/05 14:17:07;;;;;;;3.28;1.52;;;;;;;;;;5028973;28;20471;-81
2022/08/05 14:19:33;;;;;;;3.35;1.75;;;;;;;;;;5026922;28;20097;-80
2022/08/05 14:21:59;;;;;;;3.28;1.60;;;;;;;;;;5023343;28;20057;-80
2022/08/05 14:24:25;;;;;;;3.92;2.20;;;;;;;;;;5025458;28;20033;-81
2022/08/05 14:26:51;;;;;;;2.88;2.03;;;;;;;;;;5024029;28;20479;-79
2022/08/05 14:29:18;;;;;;;2.58;1.83;;;;;;;;;;5026250;28;20096;-84
2022/08/05 14:31:44;;;;;;;6.90;3.45;;;;;;;;;;5021056;28;20036;-81
2022/08/05 14:34:10;;;;;;;2.63;2.08;;;;;;;;;;5023774;28;20032;-81
2022/08/05 14:36:36;;;;;;;3.67;1.95;;;;;;;;;;5018379;28;20032;-80
2022/08/05 14:39:04;;;;;;;4.47;1.60;;;;;;;;;;5018546;28;20117;-82
2022/08/05 14:41:31;;;;;;;2.95;2.05;;;;;;;;;;5025741;28;20171;-79
2022/08/05 14:43:57;;;;;;;5.13;2.00;;;;;;;;;;5022504;28;20100;-79
2022/08/05 14:46:27;;;;;;;2.30;1.85;;;;;;;;;;5024721;28;20051;-80
2022/08/05 14:48:53;;;;;;;3.60;2.13;;;;;;;;;;5027571;28;20029;-79
2022/08/05 14:51:20;;;;;;;2.75;1.80;;;;;;;;;;5025545;28;20381;-78
2022/08/05 14:53:46;;;;;;;3.17;1.90;;;;;;;;;;5024980;28;20048;-80